Time;durP1;ratioP1;P1;durP2;ratioP2;P2;SDS_P1;SDS_P2;PMS_P1;PMS_P2;Temp;Humidity;BMP_temperature;BMP_pressure;BME280_temperature;BME280_humidity;BME280_pressure;Samples;Min_cycle;Max_cycle;Signal;HPM_P1;HPM_P2
2021/04/18 00:00:38;;;;;;;15.65;12.13;;;7.10;64.50;;;;;;6233239;23;19996;-71
2021/04/18 00:03:04;;;;;;;14.93;11.70;;;7.00;65.00;;;;;;6236222;23;20039;-70
2021/04/18 00:05:29;;;;;;;16.17;12.23;;;6.90;64.70;;;;;;6223718;23;20005;-70
2021/04/18 00:08:02;;;;;;;15.98;12.02;;;6.90;64.90;;;;;;6227121;23;20064;-71
2021/04/18 00:10:31;;;;;;;16.33;12.38;;;7.00;65.40;;;;;;6180650;23;20016;-71
2021/04/18 00:12:58;;;;;;;15.40;12.18;;;6.90;64.70;;;;;;6155860;23;20064;-70
2021/04/18 00:15:24;;;;;;;14.77;11.60;;;6.90;65.20;;;;;;6181839;23;20004;-70
2021/04/18 00:17:50;;;;;;;15.18;12.40;;;6.90;65.40;;;;;;6186359;23;20007;-70
2021/04/18 00:20:15;;;;;;;16.23;12.27;;;6.90;65.40;;;;;;6201817;23;20004;-71
2021/04/18 00:22:41;;;;;;;18.17;12.43;;;6.90;65.60;;;;;;6229811;23;20019;-71
2021/04/18 00:25:08;;;;;;;17.60;13.75;;;6.80;65.30;;;;;;6231784;23;20035;-71
2021/04/18 00:27:34;;;;;;;17.08;13.23;;;6.80;65.50;;;;;;6174206;23;20020;-70
2021/04/18 00:29:59;;;;;;;19.27;13.05;;;6.80;65.50;;;;;;6212039;23;20187;-70
2021/04/18 00:32:25;;;;;;;20.45;13.48;;;6.80;65.50;;;;;;6227463;23;20015;-70
2021/04/18 00:34:50;;;;;;;17.25;13.23;;;6.80;65.90;;;;;;6228553;23;20070;-70
2021/04/18 00:37:16;;;;;;;16.60;13.15;;;6.90;65.90;;;;;;6204788;23;20016;-70
2021/04/18 00:39:42;;;;;;;17.52;13.48;;;6.80;65.30;;;;;;6198240;23;20212;-70
2021/04/18 00:42:07;;;;;;;20.95;14.18;;;6.80;65.80;;;;;;6210881;23;20296;-71
2021/04/18 00:44:33;;;;;;;16.55;12.85;;;6.80;65.50;;;;;;6226428;23;20184;-70
2021/04/18 00:46:58;;;;;;;17.85;13.40;;;6.90;66.40;;;;;;6201847;23;20006;-70
2021/04/18 00:49:24;;;;;;;19.58;13.90;;;6.80;66.20;;;;;;6178482;23;20004;-70
2021/04/18 00:51:50;;;;;;;19.02;14.30;;;6.80;66.40;;;;;;6232894;23;20308;-70
2021/04/18 00:54:16;;;;;;;18.52;13.88;;;6.70;66.60;;;;;;6237374;23;20244;-70
2021/04/18 00:56:41;;;;;;;19.50;13.90;;;6.70;66.80;;;;;;6173891;23;20176;-70
2021/04/18 00:59:06;;;;;;;18.67;13.63;;;6.60;66.60;;;;;;6227678;23;20059;-70
2021/04/18 01:01:33;;;;;;;18.00;13.45;;;6.50;66.80;;;;;;6203388;23;20016;-70
2021/04/18 01:03:58;;;;;;;18.35;14.18;;;6.70;67.10;;;;;;6205842;23;20012;-70
2021/04/18 01:06:24;;;;;;;18.65;13.90;;;6.60;67.00;;;;;;6235069;23;19992;-70
2021/04/18 01:08:49;;;;;;;19.08;13.85;;;6.40;67.20;;;;;;6200569;23;20260;-70
2021/04/18 01:11:15;;;;;;;18.42;14.07;;;6.50;67.70;;;;;;6201136;23;20001;-70
2021/04/18 01:13:40;;;;;;;20.40;14.57;;;6.50;67.30;;;;;;6177495;23;20054;-70
2021/04/18 01:16:06;;;;;;;22.38;13.88;;;6.60;67.70;;;;;;6231703;23;20015;-70
2021/04/18 01:18:32;;;;;;;19.02;13.60;;;6.40;67.60;;;;;;6234006;23;20284;-70
2021/04/18 01:21:05;;;;;;;19.08;13.70;;;6.50;67.70;;;;;;6237540;23;19996;-70
2021/04/18 01:23:31;;;;;;;17.83;13.60;;;6.60;67.70;;;;;;6199009;23;20059;-70
2021/04/18 01:25:57;;;;;;;19.05;14.48;;;6.60;67.70;;;;;;6202064;23;20009;-70
2021/04/18 01:28:23;;;;;;;20.48;14.13;;;6.70;67.40;;;;;;6204106;23;20169;-70
2021/04/18 01:30:48;;;;;;;19.25;14.10;;;6.70;67.30;;;;;;6206610;23;20064;-70
2021/04/18 01:33:14;;;;;;;19.17;13.65;;;6.60;67.20;;;;;;6210899;23;19996;-70
2021/04/18 01:35:40;;;;;;;18.33;13.88;;;6.60;67.40;;;;;;6173554;23;20012;-70
2021/04/18 01:38:06;;;;;;;18.50;14.18;;;6.50;67.50;;;;;;6176500;23;20012;-70
2021/04/18 01:40:33;;;;;;;18.70;14.75;;;6.50;67.50;;;;;;6177895;23;20180;-70
2021/04/18 01:42:59;;;;;;;19.38;14.32;;;6.50;67.80;;;;;;6231820;23;20025;-70
2021/04/18 01:45:25;;;;;;;19.40;14.98;;;6.40;68.20;;;;;;6208041;23;20241;-70
2021/04/18 01:47:51;;;;;;;20.77;14.55;;;6.30;68.50;;;;;;6236942;23;20194;-70
2021/04/18 01:50:17;;;;;;;19.33;14.10;;;6.30;68.40;;;;;;6200302;23;20015;-70
2021/04/18 01:52:43;;;;;;;21.13;15.43;;;6.30;68.60;;;;;;6202248;23;20021;-70
2021/04/18 01:55:09;;;;;;;21.52;15.13;;;6.50;68.40;;;;;;6204899;23;20012;-70
2021/04/18 01:57:35;;;;;;;19.83;15.52;;;6.40;68.40;;;;;;6198195;23;20001;-70
2021/04/18 02:00:00;;;;;;;19.85;14.95;;;6.40;68.40;;;;;;6237146;23;19993;-71
2021/04/18 02:02:26;;;;;;;18.92;14.68;;;6.30;68.50;;;;;;6199353;23;20305;-70
2021/04/18 02:04:55;;;;;;;20.77;14.80;;;6.10;69.10;;;;;;6201743;23;20322;-70
2021/04/18 02:07:21;;;;;;;20.63;14.85;;;6.20;69.10;;;;;;6229204;23;20024;-70
2021/04/18 02:09:46;;;;;;;21.42;15.43;;;6.30;69.00;;;;;;6225571;23;20015;-70
2021/04/18 02:12:12;;;;;;;20.17;14.57;;;6.30;69.30;;;;;;6210119;23;20004;-70
2021/04/18 02:14:37;;;;;;;18.50;14.18;;;6.30;69.30;;;;;;6224575;23;20028;-70
2021/04/18 02:17:03;;;;;;;20.85;15.27;;;6.20;69.30;;;;;;6227339;23;20009;-70
2021/04/18 02:19:29;;;;;;;23.77;15.65;;;6.30;69.60;;;;;;6178287;23;20020;-70
2021/04/18 02:21:55;;;;;;;22.08;16.00;;;6.30;69.50;;;;;;6231725;23;20009;-70
2021/04/18 02:24:21;;;;;;;23.45;15.98;;;6.20;69.70;;;;;;6208206;23;20038;-70
2021/04/18 02:26:46;;;;;;;21.33;15.60;;;6.10;70.00;;;;;;6210762;23;19993;-70
2021/04/18 02:29:12;;;;;;;21.13;15.40;;;6.30;70.10;;;;;;6200652;23;20288;-70
2021/04/18 02:31:37;;;;;;;19.95;15.30;;;6.10;70.10;;;;;;6228687;23;20009;-70
2021/04/18 02:34:03;;;;;;;22.60;15.73;;;6.20;69.80;;;;;;6204208;23;20020;-70
2021/04/18 02:36:29;;;;;;;19.00;14.73;;;6.20;69.90;;;;;;6206973;23;20052;-70
2021/04/18 02:38:55;;;;;;;20.48;15.20;;;6.30;70.20;;;;;;6226764;23;20048;-70
2021/04/18 02:41:20;;;;;;;22.48;15.93;;;6.20;69.80;;;;;;6199787;23;20009;-70
2021/04/18 02:43:46;;;;;;;20.98;14.98;;;6.20;70.30;;;;;;6201574;23;20039;-70
2021/04/18 02:46:11;;;;;;;22.15;15.57;;;6.50;70.10;;;;;;6230316;23;20012;-70
2021/04/18 02:48:37;;;;;;;22.20;15.90;;;6.50;69.90;;;;;;6156761;23;20023;-70
2021/04/18 02:51:03;;;;;;;23.60;16.25;;;6.30;69.80;;;;;;6209510;23;20288;-70
2021/04/18 02:53:28;;;;;;;22.25;16.42;;;6.40;70.00;;;;;;6198365;23;20068;-70
2021/04/18 02:55:54;;;;;;;25.58;16.75;;;6.20;70.30;;;;;;6197557;23;20072;-70
2021/04/18 02:58:19;;;;;;;23.33;16.50;;;6.40;70.10;;;;;;6229653;23;20071;-70
2021/04/18 03:00:45;;;;;;;23.15;16.55;;;6.20;70.40;;;;;;6205706;23;20000;-70
2021/04/18 03:03:10;;;;;;;21.73;16.25;;;6.20;70.40;;;;;;6236429;23;20063;-70
2021/04/18 03:05:36;;;;;;;21.13;15.65;;;6.10;70.70;;;;;;6224739;23;20005;-70
2021/04/18 03:08:01;;;;;;;23.10;16.83;;;6.00;70.90;;;;;;6226857;23;20005;-70
2021/04/18 03:10:28;;;;;;;23.10;16.60;;;6.20;71.00;;;;;;6229645;23;20219;-70
2021/04/18 03:12:54;;;;;;;22.15;16.83;;;6.10;71.00;;;;;;6231547;23;20004;-70
2021/04/18 03:15:20;;;;;;;21.95;16.23;;;5.90;70.80;;;;;;6207304;23;20000;-70
2021/04/18 03:17:46;;;;;;;24.67;16.92;;;5.90;71.20;;;;;;6185213;23;20026;-70
2021/04/18 03:20:12;;;;;;;22.75;15.98;;;6.00;71.50;;;;;;6199888;23;20024;-70
2021/04/18 03:22:37;;;;;;;22.90;15.18;;;6.00;71.50;;;;;;6223068;23;20293;-70
2021/04/18 03:25:03;;;;;;;25.13;16.08;;;6.00;71.90;;;;;;6228074;23;20015;-70
2021/04/18 03:27:29;;;;;;;25.13;16.95;;;5.90;71.70;;;;;;6197168;23;20047;-70
2021/04/18 03:29:55;;;;;;;24.40;17.48;;;6.00;71.80;;;;;;6236116;23;20012;-71
2021/04/18 03:32:20;;;;;;;23.77;16.55;;;6.00;71.60;;;;;;6225837;23;20089;-70
2021/04/18 03:34:46;;;;;;;23.40;16.95;;;5.90;71.90;;;;;;6227028;23;20015;-70
2021/04/18 03:37:11;;;;;;;21.67;16.70;;;6.00;72.00;;;;;;6230006;23;20184;-70
2021/04/18 03:39:37;;;;;;;23.38;16.33;;;6.20;71.60;;;;;;6206074;23;20016;-70
2021/04/18 03:42:03;;;;;;;22.08;16.60;;;6.10;71.00;;;;;;6209469;23;20008;-70
2021/04/18 03:44:29;;;;;;;22.00;16.45;;;6.30;71.60;;;;;;6224014;23;20203;-70
2021/04/18 03:46:54;;;;;;;22.73;16.55;;;6.30;71.00;;;;;;6201153;23;20070;-71
2021/04/18 03:49:20;;;;;;;23.40;17.27;;;6.20;71.30;;;;;;6229391;23;20004;-71
2021/04/18 03:51:46;;;;;;;24.05;17.23;;;6.10;71.70;;;;;;6232401;23;20115;-72
2021/04/18 03:54:12;;;;;;;24.55;17.13;;;5.90;72.10;;;;;;6201314;23;20220;-72
2021/04/18 03:56:37;;;;;;;23.30;17.05;;;5.90;72.50;;;;;;6226131;23;20005;-73
2021/04/18 03:59:03;;;;;;;24.95;17.58;;;6.00;72.50;;;;;;6202484;23;20000;-72
2021/04/18 04:01:29;;;;;;;25.10;17.80;;;6.00;72.30;;;;;;6230873;23;20015;-72
2021/04/18 04:03:55;;;;;;;23.00;16.92;;;6.10;72.40;;;;;;6233255;23;20027;-72
2021/04/18 04:06:21;;;;;;;25.65;17.33;;;6.10;72.10;;;;;;6209338;23;20287;-72
2021/04/18 04:08:47;;;;;;;24.25;17.38;;;6.10;72.20;;;;;;6237977;23;20165;-72
2021/04/18 04:11:12;;;;;;;24.80;17.67;;;6.00;72.10;;;;;;6227707;23;20032;-70
2021/04/18 04:13:38;;;;;;;23.20;17.30;;;6.00;72.40;;;;;;6230190;23;20009;-70
2021/04/18 04:16:04;;;;;;;27.38;19.17;;;5.90;72.80;;;;;;6232780;23;20004;-70
2021/04/18 04:18:29;;;;;;;23.63;17.55;;;6.00;72.70;;;;;;6225831;23;20276;-70
2021/04/18 04:20:54;;;;;;;23.95;17.27;;;5.90;72.90;;;;;;6237684;23;20005;-69
2021/04/18 04:23:20;;;;;;;24.25;17.27;;;6.00;72.60;;;;;;6227084;23;20017;-70
2021/04/18 04:25:46;;;;;;;27.27;18.13;;;6.10;72.60;;;;;;6229690;23;20060;-70
2021/04/18 04:28:13;;;;;;;26.95;17.95;;;6.00;72.70;;;;;;6231688;23;20008;-70
2021/04/18 04:30:39;;;;;;;23.20;17.13;;;5.90;72.90;;;;;;6233395;23;20007;-71
2021/04/18 04:33:04;;;;;;;24.02;17.90;;;5.90;73.10;;;;;;6237666;23;20196;-70
2021/04/18 04:35:30;;;;;;;25.63;18.35;;;5.90;72.90;;;;;;6226751;23;20013;-70
2021/04/18 04:37:57;;;;;;;26.85;18.52;;;5.80;73.00;;;;;;6201767;23;20015;-70
2021/04/18 04:40:23;;;;;;;26.23;17.63;;;5.80;73.00;;;;;;6230970;23;20072;-69
2021/04/18 04:42:48;;;;;;;24.80;18.15;;;5.80;73.60;;;;;;6233619;23;20009;-71
2021/04/18 04:45:14;;;;;;;26.48;18.80;;;5.90;73.30;;;;;;6238182;23;20005;-71
2021/04/18 04:47:39;;;;;;;23.50;17.42;;;5.90;73.40;;;;;;6225296;23;20051;-71
2021/04/18 04:50:06;;;;;;;24.95;17.83;;;5.90;73.60;;;;;;6228145;23;20005;-71
2021/04/18 04:52:31;;;;;;;27.25;19.13;;;5.90;73.10;;;;;;6224908;23;20020;-70
2021/04/18 04:54:57;;;;;;;24.70;18.70;;;5.70;73.50;;;;;;6232377;23;20277;-70
2021/04/18 04:57:23;;;;;;;25.35;19.05;;;5.80;73.60;;;;;;6235079;23;20000;-70
2021/04/18 04:59:49;;;;;;;26.20;18.55;;;5.80;73.80;;;;;;6237986;23;20055;-70
2021/04/18 05:02:14;;;;;;;27.70;18.75;;;5.90;73.50;;;;;;6227163;23;20065;-70
2021/04/18 05:04:40;;;;;;;27.48;18.88;;;6.00;73.40;;;;;;6229081;23;20015;-71
2021/04/18 05:07:05;;;;;;;27.88;19.15;;;6.00;73.20;;;;;;6205923;23;20060;-70
2021/04/18 05:09:31;;;;;;;28.08;20.15;;;5.90;73.00;;;;;;6233890;23;19997;-70
2021/04/18 05:11:56;;;;;;;26.80;19.10;;;5.80;73.50;;;;;;6237484;23;20240;-69
2021/04/18 05:14:22;;;;;;;27.35;19.45;;;5.80;74.10;;;;;;6226598;23;20008;-70
2021/04/18 05:16:47;;;;;;;29.58;19.10;;;5.80;73.90;;;;;;6229288;23;20009;-70
2021/04/18 05:19:13;;;;;;;29.88;19.02;;;5.80;74.10;;;;;;6231176;23;20019;-69
2021/04/18 05:21:39;;;;;;;26.83;18.73;;;5.90;74.30;;;;;;6233635;23;20009;-70
2021/04/18 05:24:05;;;;;;;26.30;18.60;;;5.90;74.20;;;;;;6237143;23;20002;-68
2021/04/18 05:26:30;;;;;;;27.38;18.88;;;5.90;74.00;;;;;;6225059;23;20020;-68
2021/04/18 05:28:56;;;;;;;29.15;20.60;;;5.90;74.00;;;;;;6228524;23;20188;-71
2021/04/18 05:31:22;;;;;;;26.48;19.02;;;5.80;74.20;;;;;;6230297;23;20000;-68
2021/04/18 05:33:47;;;;;;;28.42;19.55;;;5.80;74.50;;;;;;6198788;23;20020;-70
2021/04/18 05:36:13;;;;;;;28.33;18.80;;;5.90;74.20;;;;;;6210900;23;20280;-69
2021/04/18 05:38:39;;;;;;;29.35;19.23;;;6.10;74.00;;;;;;6198019;23;20032;-70
2021/04/18 05:41:04;;;;;;;27.70;19.70;;;6.00;73.70;;;;;;6227109;23;20300;-70
2021/04/18 05:43:30;;;;;;;29.30;19.95;;;6.10;73.70;;;;;;6229606;23;20039;-70
2021/04/18 05:45:55;;;;;;;28.33;19.48;;;6.00;73.60;;;;;;6232210;23;20008;-72
2021/04/18 05:48:21;;;;;;;29.52;19.83;;;6.00;73.90;;;;;;6234776;23;20001;-69
2021/04/18 05:50:46;;;;;;;27.40;19.17;;;6.10;73.60;;;;;;6210469;23;19996;-69
2021/04/18 05:53:13;;;;;;;28.10;19.30;;;6.20;73.60;;;;;;6225810;23;20017;-72
2021/04/18 05:55:38;;;;;;;30.25;20.10;;;6.20;72.90;;;;;;6202712;23;20188;-69
2021/04/18 05:58:05;;;;;;;28.42;19.45;;;6.20;73.50;;;;;;6231433;23;20000;-73
2021/04/18 06:00:31;;;;;;;28.67;19.80;;;6.20;73.60;;;;;;6207112;23;20165;-73
2021/04/18 06:02:56;;;;;;;29.05;19.90;;;6.10;73.50;;;;;;6236976;23;20042;-69
2021/04/18 06:05:22;;;;;;;26.98;19.15;;;6.10;73.10;;;;;;6225824;23;20005;-68
2021/04/18 06:07:47;;;;;;;28.20;20.30;;;6.20;73.60;;;;;;6227913;23;20016;-71
2021/04/18 06:10:13;;;;;;;29.08;20.45;;;6.20;73.40;;;;;;6230678;23;20011;-72
2021/04/18 06:12:39;;;;;;;28.33;20.23;;;6.20;73.40;;;;;;6206479;23;20047;-71
2021/04/18 06:15:05;;;;;;;27.42;19.83;;;6.30;73.70;;;;;;6209957;23;20005;-69
2021/04/18 06:17:31;;;;;;;30.00;20.00;;;6.30;73.40;;;;;;6172465;23;20004;-68
2021/04/18 06:19:56;;;;;;;28.60;20.52;;;6.40;73.30;;;;;;6176223;23;20312;-66
2021/04/18 06:22:22;;;;;;;29.40;20.48;;;6.40;73.90;;;;;;6229614;23;20008;-75
2021/04/18 06:24:48;;;;;;;29.10;20.42;;;6.30;73.60;;;;;;6172181;23;20042;-73
2021/04/18 06:27:13;;;;;;;28.63;20.42;;;6.20;74.00;;;;;;6236433;23;19996;-74
2021/04/18 06:29:39;;;;;;;29.35;20.38;;;6.20;73.90;;;;;;6224164;23;20009;-74
2021/04/18 06:32:05;;;;;;;29.00;19.80;;;6.30;74.30;;;;;;6227242;23;20043;-75
2021/04/18 06:34:30;;;;;;;30.30;20.08;;;6.30;73.80;;;;;;6224235;23;20012;-74
2021/04/18 06:36:56;;;;;;;30.25;20.75;;;6.30;74.00;;;;;;6230985;23;20012;-68
2021/04/18 06:39:21;;;;;;;28.45;20.88;;;6.40;73.80;;;;;;6233705;23;20223;-72
2021/04/18 06:41:55;;;;;;;26.15;19.77;;;6.40;73.60;;;;;;6174997;23;20059;-78
2021/04/18 06:44:20;;;;;;;28.60;19.83;;;6.40;73.70;;;;;;6174763;23;20008;-75
2021/04/18 06:46:49;;;;;;;28.30;19.73;;;6.30;73.70;;;;;;6148154;23;20307;-74
2021/04/18 06:49:15;;;;;;;28.00;18.73;;;6.40;73.80;;;;;;6179181;23;20315;-75
2021/04/18 06:51:41;;;;;;;28.02;19.55;;;6.40;74.20;;;;;;6205950;23;20017;-72
2021/04/18 06:54:06;;;;;;;27.15;19.23;;;6.40;73.70;;;;;;6209741;23;20020;-73
2021/04/18 06:56:32;;;;;;;24.45;17.85;;;6.40;73.70;;;;;;6174171;23;20288;-72
2021/04/18 06:58:58;;;;;;;26.92;19.30;;;6.50;73.90;;;;;;6200886;23;20004;-72
2021/04/18 07:01:24;;;;;;;24.20;17.75;;;6.50;73.70;;;;;;6153578;23;20160;-73
2021/04/18 07:04:17;;;;;;;27.33;19.58;;;6.50;73.80;;;;;;6180722;23;20012;-73
2021/04/18 07:06:44;;;;;;;27.08;18.08;;;6.60;73.80;;;;;;6214067;23;20069;-73
2021/04/18 07:09:13;;;;;;;25.23;18.27;;;6.70;73.30;;;;;;6185466;23;20011;-74
2021/04/18 07:11:47;;;;;;;30.63;19.52;;;6.90;72.90;;;;;;6147096;23;20028;-72
2021/04/18 07:14:33;;;;;;;25.52;18.60;;;7.10;72.40;;;;;;6175395;23;20009;-74
2021/04/18 07:17:15;;;;;;;26.30;18.23;;;7.10;72.10;;;;;;6199920;23;20060;-75
2021/04/18 07:19:42;;;;;;;26.35;18.38;;;7.10;72.40;;;;;;6153962;23;20009;-72
2021/04/18 07:22:07;;;;;;;23.85;17.60;;;7.00;71.90;;;;;;6204254;23;20009;-74
2021/04/18 07:24:46;;;;;;;26.25;18.75;;;7.10;72.10;;;;;;6181435;23;20226;-72
2021/04/18 07:27:12;;;;;;;24.33;18.17;;;7.30;71.30;;;;;;6163355;23;20005;-74
2021/04/18 07:29:37;;;;;;;26.77;17.98;;;7.10;71.10;;;;;;6200158;23;20008;-75
2021/04/18 07:32:23;;;;;;;22.75;16.63;;;6.90;71.20;;;;;;6202803;23;20310;-81
2021/04/18 07:34:49;;;;;;;23.73;17.42;;;7.00;71.80;;;;;;6150694;23;20338;-81
2021/04/18 07:37:23;;;;;;;26.60;18.65;;;7.20;71.20;;;;;;6180889;23;20012;-78
2021/04/18 07:39:57;;;;;;;25.55;18.00;;;7.10;71.00;;;;;;6208451;23;20235;-76
2021/04/18 07:42:34;;;;;;;24.92;17.85;;;7.00;70.70;;;;;;6184652;23;20011;-78
2021/04/18 07:45:06;;;;;;;25.85;18.17;;;7.00;71.60;;;;;;6187572;23;20059;-77
2021/04/18 07:47:34;;;;;;;24.48;18.33;;;7.00;71.10;;;;;;6151735;23;20005;-68
2021/04/18 07:50:00;;;;;;;27.40;19.02;;;7.00;71.90;;;;;;6202565;23;20192;-72
2021/04/18 07:52:25;;;;;;;27.67;18.90;;;6.90;71.50;;;;;;6229456;23;20076;-68
2021/04/18 07:54:52;;;;;;;25.50;18.70;;;7.10;72.00;;;;;;6182350;23;20275;-70
2021/04/18 07:57:19;;;;;;;27.42;19.38;;;7.10;71.20;;;;;;6208935;23;20307;-72
2021/04/18 07:59:44;;;;;;;26.48;18.80;;;7.10;71.80;;;;;;6162505;23;20284;-72
2021/04/18 08:02:16;;;;;;;27.38;19.50;;;7.20;71.50;;;;;;6228135;23;20109;-72
2021/04/18 08:04:43;;;;;;;25.65;18.90;;;7.40;71.70;;;;;;6154705;23;20005;-72
2021/04/18 08:07:08;;;;;;;28.38;20.13;;;7.60;71.20;;;;;;6179510;23;20009;-72
2021/04/18 08:09:34;;;;;;;28.25;19.02;;;7.70;70.70;;;;;;6173808;23;20267;-69
2021/04/18 08:12:12;;;;;;;26.33;18.63;;;7.80;70.30;;;;;;6212022;23;20035;-67
2021/04/18 08:14:40;;;;;;;26.38;18.60;;;7.80;69.60;;;;;;6201626;23;20288;-70
2021/04/18 08:17:16;;;;;;;28.17;18.95;;;7.80;70.20;;;;;;6202301;23;20009;-79
2021/04/18 08:19:58;;;;;;;27.48;20.40;;;7.70;70.40;;;;;;6178779;23;20013;-75
2021/04/18 08:22:24;;;;;;;26.05;18.75;;;7.60;70.70;;;;;;6180283;23;20223;-73
2021/04/18 08:25:09;;;;;;;27.55;19.02;;;7.80;71.10;;;;;;6182944;23;20016;-72
2021/04/18 08:28:00;;;;;;;24.05;18.17;;;7.90;71.00;;;;;;6208307;23;20001;-68
2021/04/18 08:30:26;;;;;;;26.77;19.67;;;7.90;69.40;;;;;;6209169;23;20031;-70
2021/04/18 08:32:52;;;;;;;24.73;18.30;;;7.90;70.00;;;;;;6212156;23;20001;-68
2021/04/18 08:35:19;;;;;;;25.95;19.17;;;8.00;69.60;;;;;;6227584;23;20009;-67
2021/04/18 08:37:44;;;;;;;29.20;18.40;;;7.90;69.80;;;;;;6177996;23;20009;-77
2021/04/18 08:40:10;;;;;;;23.33;17.67;;;8.00;69.50;;;;;;6231849;23;20047;-71
2021/04/18 08:42:37;;;;;;;24.02;18.48;;;7.90;69.10;;;;;;6149748;23;20005;-71
2021/04/18 08:45:03;;;;;;;23.98;17.52;;;7.90;69.10;;;;;;6176459;23;20005;-70
2021/04/18 08:47:30;;;;;;;25.63;19.23;;;7.90;68.90;;;;;;6198761;23;20016;-71
2021/04/18 08:50:19;;;;;;;24.73;18.50;;;7.90;68.90;;;;;;6202323;23;20060;-72
2021/04/18 08:52:44;;;;;;;25.55;19.00;;;7.90;69.00;;;;;;6227841;23;20036;-66
2021/04/18 08:55:11;;;;;;;25.40;18.50;;;8.00;68.90;;;;;;6232172;23;20216;-70
2021/04/18 08:57:37;;;;;;;23.50;17.65;;;8.00;68.90;;;;;;6207676;23;20017;-69
2021/04/18 09:00:11;;;;;;;26.35;18.48;;;8.00;68.40;;;;;;6210913;23;20005;-71
2021/04/18 09:02:37;;;;;;;26.13;19.13;;;7.90;68.30;;;;;;6225064;23;20235;-65
2021/04/18 09:05:05;;;;;;;26.50;19.23;;;7.70;69.20;;;;;;6201468;23;20020;-74
2021/04/18 09:07:32;;;;;;;27.70;19.70;;;7.80;69.00;;;;;;6179371;23;20300;-75
2021/04/18 09:10:03;;;;;;;27.65;19.25;;;7.90;69.00;;;;;;6182059;23;20035;-78
2021/04/18 09:12:29;;;;;;;;;;;7.90;69.00;;;;;;6199506;23;20004;-75
2021/04/18 09:14:55;;;;;;;26.00;18.90;;;7.90;68.90;;;;;;6228159;23;20096;-68
2021/04/18 09:17:25;;;;;;;30.33;21.02;;;7.90;69.20;;;;;;6150784;23;20064;-73
2021/04/18 09:19:55;;;;;;;31.30;21.15;;;7.90;69.40;;;;;;6203700;23;20005;-70
2021/04/18 09:22:28;;;;;;;28.70;20.73;;;7.90;69.30;;;;;;6179231;23;20291;-70
2021/04/18 09:25:09;;;;;;;30.10;21.45;;;7.80;70.30;;;;;;6206243;23;20004;-70
2021/04/18 09:27:45;;;;;;;26.80;18.88;;;7.90;70.10;;;;;;6233917;23;19997;-72
2021/04/18 09:30:29;;;;;;;26.70;19.80;;;7.90;68.70;;;;;;6151234;23;20007;-69
2021/04/18 09:32:56;;;;;;;28.10;19.48;;;8.00;68.50;;;;;;6199397;23;20004;-69
2021/04/18 09:35:23;;;;;;;27.48;19.50;;;8.00;68.20;;;;;;6226897;23;20012;-69
2021/04/18 09:37:55;;;;;;;29.85;20.27;;;8.10;67.70;;;;;;6177064;23;20013;-69
2021/04/18 09:40:23;;;;;;;30.00;21.10;;;8.20;67.70;;;;;;6230278;23;20207;-67
2021/04/18 09:42:50;;;;;;;29.40;20.70;;;8.10;68.10;;;;;;6182680;23;20235;-70
2021/04/18 09:45:17;;;;;;;29.17;20.35;;;7.90;69.20;;;;;;6236914;23;20231;-70
2021/04/18 09:47:47;;;;;;;30.95;20.80;;;8.00;68.70;;;;;;6199039;23;20232;-68
2021/04/18 09:50:23;;;;;;;30.05;20.42;;;8.00;68.00;;;;;;6175918;23;20014;-72
2021/04/18 09:52:49;;;;;;;29.52;20.83;;;7.90;67.90;;;;;;6178085;23;20324;-72
2021/04/18 09:55:26;;;;;;;28.05;19.52;;;7.90;68.90;;;;;;6179854;23;20227;-71
2021/04/18 09:58:01;;;;;;;28.02;19.85;;;7.90;69.00;;;;;;6182171;23;20064;-71
2021/04/18 10:00:30;;;;;;;29.05;20.15;;;8.10;68.50;;;;;;6234094;23;20000;-71
2021/04/18 10:03:11;;;;;;;28.65;19.48;;;8.20;68.10;;;;;;6237200;23;19997;-70
2021/04/18 10:05:43;;;;;;;;;;;8.20;67.90;;;;;;6199408;23;20012;-72
2021/04/18 10:08:19;;;;;;;;;;;8.30;68.00;;;;;;6225031;23;19899;-70
2021/04/18 10:10:50;;;;;;;29.02;19.98;;;8.40;67.50;;;;;;6215194;23;19907;-71
2021/04/18 10:13:36;;;;;;;29.38;19.15;;;8.20;66.40;;;;;;6204337;23;20011;-71
2021/04/18 10:16:04;;;;;;;28.08;18.85;;;8.30;67.20;;;;;;6152706;23;20011;-72
2021/04/18 10:18:29;;;;;;;28.52;19.65;;;8.40;66.80;;;;;;6183063;23;20000;-71
2021/04/18 10:21:19;;;;;;;26.20;17.48;;;8.50;66.80;;;;;;6210522;23;19988;-72
2021/04/18 10:23:45;;;;;;;25.42;18.13;;;8.50;66.00;;;;;;6198832;23;20324;-70
2021/04/18 10:26:11;;;;;;;26.25;18.55;;;8.50;65.20;;;;;;6151216;23;20000;-70
2021/04/18 10:28:36;;;;;;;27.38;18.70;;;8.30;66.20;;;;;;6178223;23;20001;-70
2021/04/18 10:31:02;;;;;;;27.70;18.48;;;8.40;66.00;;;;;;6172659;23;20132;-71
2021/04/18 10:33:27;;;;;;;25.88;18.42;;;8.20;65.20;;;;;;6182217;23;20032;-70
2021/04/18 10:35:56;;;;;;;26.70;19.25;;;8.40;65.30;;;;;;6236751;23;20000;-70
2021/04/18 10:38:22;;;;;;;26.23;18.48;;;8.40;65.10;;;;;;6226407;23;20008;-70
2021/04/18 10:40:48;;;;;;;28.27;18.77;;;8.50;65.50;;;;;;6176535;23;20047;-71
2021/04/18 10:43:13;;;;;;;25.08;18.30;;;8.60;65.60;;;;;;6203653;23;20019;-72
2021/04/18 10:45:39;;;;;;;26.95;19.33;;;8.60;66.00;;;;;;6180798;23;20062;-72
2021/04/18 10:48:06;;;;;;;25.48;18.08;;;8.70;65.70;;;;;;6185003;23;20004;-72
2021/04/18 10:50:32;;;;;;;26.08;18.83;;;8.90;65.40;;;;;;6148358;23;20009;-71
2021/04/18 10:52:58;;;;;;;27.55;19.80;;;8.90;64.80;;;;;;6174747;23;20071;-70
2021/04/18 10:55:23;;;;;;;29.00;19.67;;;8.90;64.40;;;;;;6203195;23;20015;-72
2021/04/18 10:57:49;;;;;;;28.23;20.00;;;8.90;64.30;;;;;;6231684;23;20311;-72
2021/04/18 11:00:15;;;;;;;35.28;22.15;;;8.80;64.10;;;;;;6184942;23;20024;-72
2021/04/18 11:02:41;;;;;;;30.88;20.48;;;8.80;64.40;;;;;;6197817;23;20072;-73
2021/04/18 11:05:08;;;;;;;29.30;21.02;;;8.80;63.80;;;;;;6200649;23;20008;-71
2021/04/18 11:07:33;;;;;;;29.67;20.17;;;8.80;63.40;;;;;;6197630;23;20004;-73
2021/04/18 11:09:59;;;;;;;28.33;19.40;;;8.70;63.10;;;;;;6204721;23;20031;-69
2021/04/18 11:12:24;;;;;;;30.85;20.20;;;8.50;63.80;;;;;;6207403;23;19997;-69
2021/04/18 11:14:50;;;;;;;28.63;19.67;;;8.50;63.70;;;;;;6236579;23;20012;-69
2021/04/18 11:17:16;;;;;;;26.38;17.98;;;8.60;64.30;;;;;;6199136;23;20079;-70
2021/04/18 11:19:41;;;;;;;24.38;17.40;;;8.80;63.90;;;;;;6201882;23;20076;-70
2021/04/18 11:22:07;;;;;;;27.90;18.38;;;8.80;63.50;;;;;;6230282;23;20005;-70
2021/04/18 11:24:33;;;;;;;27.55;18.50;;;8.90;63.20;;;;;;6206944;23;20216;-72
2021/04/18 11:26:58;;;;;;;29.88;19.88;;;8.90;62.40;;;;;;6236437;23;19993;-74
2021/04/18 11:29:24;;;;;;;29.42;19.65;;;8.90;62.30;;;;;;6196499;23;20012;-74
2021/04/18 11:31:50;;;;;;;28.77;18.75;;;8.90;62.30;;;;;;6176386;23;20020;-69
2021/04/18 11:34:15;;;;;;;26.65;19.00;;;8.90;62.60;;;;;;6178944;23;20005;-73
2021/04/18 11:36:41;;;;;;;27.17;18.88;;;8.90;62.00;;;;;;6156022;23;20047;-73
2021/04/18 11:39:07;;;;;;;26.85;18.83;;;8.80;61.80;;;;;;6210080;23;19999;-77
2021/04/18 11:41:32;;;;;;;25.05;17.58;;;8.90;62.80;;;;;;6172479;23;20005;-74
2021/04/18 11:43:59;;;;;;;25.75;17.95;;;8.90;62.60;;;;;;6150611;23;20024;-73
2021/04/18 11:46:26;;;;;;;24.58;16.52;;;8.90;62.60;;;;;;6153469;23;20013;-74
2021/04/18 11:48:52;;;;;;;24.17;17.35;;;8.90;61.80;;;;;;6157281;23;20005;-79
2021/04/18 11:51:18;;;;;;;22.58;15.52;;;8.90;62.30;;;;;;6157436;23;20015;-72
2021/04/18 11:53:43;;;;;;;25.05;16.55;;;8.90;61.60;;;;;;6159968;23;20335;-70
2021/04/18 11:56:09;;;;;;;26.70;18.27;;;8.90;61.70;;;;;;6200470;23;20066;-69
2021/04/18 11:58:34;;;;;;;27.70;18.73;;;8.90;62.50;;;;;;6227858;23;20231;-74
2021/04/18 12:01:00;;;;;;;27.95;18.23;;;8.80;62.80;;;;;;6204519;23;20347;-71
2021/04/18 12:03:25;;;;;;;25.83;18.70;;;8.80;63.00;;;;;;6182020;23;20059;-71
2021/04/18 12:05:53;;;;;;;27.52;18.77;;;8.80;63.20;;;;;;6209268;23;20005;-69
2021/04/18 12:08:19;;;;;;;27.77;19.10;;;8.80;63.10;;;;;;6174905;23;20027;-70
2021/04/18 12:10:44;;;;;;;27.48;18.98;;;8.80;63.10;;;;;;6176059;23;20005;-73
2021/04/18 12:13:10;;;;;;;28.17;18.63;;;8.80;62.90;;;;;;6204143;23;20057;-78
2021/04/18 12:15:36;;;;;;;26.33;17.58;;;8.80;62.90;;;;;;6234566;23;20280;-72
2021/04/18 12:18:01;;;;;;;27.10;18.95;;;8.90;62.80;;;;;;6151420;23;20046;-75
2021/04/18 12:20:27;;;;;;;24.67;17.73;;;8.90;62.60;;;;;;6176005;23;20064;-87
2021/04/18 12:22:52;;;;;;;27.20;18.35;;;8.90;62.00;;;;;;6150430;23;20020;-79
2021/04/18 12:25:18;;;;;;;27.25;18.90;;;8.90;62.10;;;;;;6204876;23;20004;-74
2021/04/18 12:27:44;;;;;;;24.88;17.98;;;9.00;61.90;;;;;;6182292;23;19997;-83
2021/04/18 12:30:10;;;;;;;26.83;18.65;;;8.90;61.10;;;;;;6161807;23;20000;-77
2021/04/18 12:32:36;;;;;;;26.70;18.38;;;9.00;60.90;;;;;;6174145;23;20004;-75
2021/04/18 12:35:02;;;;;;;25.30;18.17;;;8.90;60.70;;;;;;6228355;23;20008;-71
2021/04/18 12:37:28;;;;;;;25.48;18.00;;;9.00;60.30;;;;;;6179379;23;20017;-69